createdAt,value
2022-08-19T00:01:11.370Z,18.73
2022-08-19T00:03:14.047Z,18.97
2022-08-19T00:05:17.416Z,18.33
2022-08-19T00:07:20.367Z,18.00
2022-08-19T00:09:24.794Z,18.53
2022-08-19T00:11:28.508Z,16.83
2022-08-19T00:13:31.198Z,17.03
2022-08-19T00:15:35.378Z,19.00
2022-08-19T00:17:38.056Z,18.07
2022-08-19T00:19:44.799Z,18.63
2022-08-19T00:21:47.492Z,20.17
2022-08-19T00:23:50.139Z,18.33
2022-08-19T00:25:52.982Z,17.53
2022-08-19T00:27:55.756Z,21.47
2022-08-19T00:29:59.821Z,18.03
2022-08-19T00:32:04.202Z,18.03
2022-08-19T00:34:07.305Z,18.53
2022-08-19T00:36:11.378Z,18.83
2022-08-19T00:38:14.043Z,17.87
2022-08-19T00:40:19.193Z,19.17
2022-08-19T00:42:23.659Z,19.90
2022-08-19T00:44:28.976Z,18.33
2022-08-19T00:46:33.525Z,19.57
2022-08-19T00:48:38.101Z,20.27
2022-08-19T00:50:52.048Z,19.43
2022-08-19T00:52:55.689Z,20.00
2022-08-19T00:54:59.882Z,19.47
2022-08-19T00:57:04.831Z,18.40
2022-08-19T00:59:09.851Z,18.90
2022-08-19T01:01:12.931Z,19.30
2022-08-19T01:03:20.244Z,18.27
2022-08-19T01:05:28.357Z,21.33
2022-08-19T01:07:35.974Z,19.47
2022-08-19T01:09:41.122Z,19.20
2022-08-19T01:11:46.385Z,18.50
2022-08-19T01:13:50.183Z,19.73
2022-08-19T01:16:00.589Z,18.63
2022-08-19T01:18:08.274Z,20.70
2022-08-19T01:20:14.180Z,19.63
2022-08-19T01:22:31.438Z,21.47
2022-08-19T01:24:37.100Z,19.03
2022-08-19T01:26:53.984Z,21.47
2022-08-19T01:29:01.878Z,19.03
2022-08-19T01:31:08.220Z,19.57
2022-08-19T01:33:11.060Z,18.97
2022-08-19T01:35:19.086Z,19.70
2022-08-19T01:37:24.970Z,19.77
2022-08-19T01:39:30.316Z,19.50
2022-08-19T01:41:34.572Z,19.10
2022-08-19T01:43:37.386Z,18.50
2022-08-19T01:46:00.457Z,18.50
2022-08-19T01:48:03.263Z,18.57
2022-08-19T01:50:08.150Z,21.50
2022-08-19T01:52:10.882Z,20.00
2022-08-19T01:54:23.389Z,21.53
2022-08-19T01:56:30.468Z,20.70
2022-08-19T01:58:42.571Z,18.97
2022-08-19T02:00:46.160Z,21.00
2022-08-19T02:02:48.881Z,20.70
2022-08-19T02:04:51.677Z,20.60
2022-08-19T02:06:54.369Z,20.40
2022-08-19T02:08:57.975Z,20.33
2022-08-19T02:11:00.667Z,20.70
2022-08-19T02:13:03.997Z,19.87
2022-08-19T02:15:09.502Z,21.30
2022-08-19T02:17:12.184Z,19.70
2022-08-19T02:19:15.819Z,22.37
2022-08-19T02:21:18.935Z,21.60
2022-08-19T02:23:21.707Z,21.97
2022-08-19T02:25:24.417Z,20.53
2022-08-19T02:27:27.508Z,23.60
2022-08-19T02:29:30.238Z,21.90
2022-08-19T02:31:34.319Z,22.13
2022-08-19T02:33:36.971Z,22.13
2022-08-19T02:35:43.213Z,22.23
2022-08-19T02:38:03.994Z,21.70
2022-08-19T02:40:12.504Z,22.23
2022-08-19T02:42:15.506Z,24.80
2022-08-19T02:44:29.662Z,22.63
2022-08-19T02:46:35.387Z,23.13
2022-08-19T02:48:38.091Z,22.70
2022-08-19T02:50:41.561Z,23.10
2022-08-19T02:52:56.530Z,22.50
2022-08-19T02:54:59.249Z,22.83
2022-08-19T02:57:02.014Z,26.30
2022-08-19T02:59:12.784Z,23.03
2022-08-19T03:01:23.542Z,25.03
2022-08-19T03:03:28.054Z,23.63
2022-08-19T03:05:47.902Z,25.43
2022-08-19T03:07:53.950Z,26.97
2022-08-19T03:09:56.596Z,24.43
2022-08-19T03:11:59.329Z,23.60
2022-08-19T03:14:04.572Z,26.03
2022-08-19T03:16:07.778Z,26.57
2022-08-19T03:18:10.561Z,28.10
2022-08-19T03:20:16.991Z,24.23
2022-08-19T03:22:19.635Z,29.10
2022-08-19T03:24:23.504Z,28.10
2022-08-19T03:26:26.321Z,28.37
2022-08-19T03:28:29.353Z,28.37
2022-08-19T03:30:32.515Z,28.03
2022-08-19T03:32:36.312Z,28.87
2022-08-19T03:34:48.046Z,32.80
2022-08-19T03:36:52.157Z,31.07
2022-08-19T03:38:59.799Z,28.13
2022-08-19T03:41:07.263Z,30.57
2022-08-19T03:43:09.981Z,27.50
2022-08-19T03:45:12.662Z,26.97
2022-08-19T03:47:17.463Z,28.63
2022-08-19T03:49:21.571Z,25.57
2022-08-19T03:51:33.688Z,28.20
2022-08-19T03:53:37.884Z,25.43
2022-08-19T03:55:42.588Z,29.73
2022-08-19T03:57:46.038Z,27.60
2022-08-19T03:59:48.768Z,27.80
2022-08-19T04:01:51.425Z,28.80
2022-08-19T04:03:54.959Z,30.30
2022-08-19T04:05:58.433Z,28.03
2022-08-19T04:08:01.516Z,31.23
2022-08-19T04:10:06.995Z,29.27
2022-08-19T04:12:13.385Z,29.83
2022-08-19T04:14:19.529Z,28.43
2022-08-19T04:16:23.734Z,31.20
2022-08-19T04:18:39.910Z,30.60
2022-08-19T04:20:47.657Z,30.50
2022-08-19T04:22:50.476Z,27.20
2022-08-19T04:24:53.146Z,31.10
2022-08-19T04:26:57.220Z,30.97
2022-08-19T04:29:00.227Z,31.10
2022-08-19T04:31:02.918Z,31.80
2022-08-19T04:33:05.583Z,34.30
2022-08-19T04:35:17.705Z,32.40
2022-08-19T04:37:21.994Z,29.93
2022-08-19T04:39:48.079Z,33.20
2022-08-19T04:42:08.843Z,30.47
2022-08-19T04:44:14.732Z,33.60
2022-08-19T04:46:28.540Z,29.60
2022-08-19T04:48:49.562Z,30.90
2022-08-19T04:50:53.335Z,30.50
2022-08-19T04:52:57.013Z,29.27
2022-08-19T04:54:59.859Z,32.13
2022-08-19T04:57:02.503Z,33.87
2022-08-19T04:59:05.621Z,32.13
2022-08-19T05:01:11.239Z,33.70
2022-08-19T05:03:14.031Z,31.70
2022-08-19T05:05:16.884Z,34.80
2022-08-19T05:07:19.799Z,28.23
2022-08-19T05:09:22.720Z,32.67
2022-08-19T05:11:29.331Z,31.63
2022-08-19T05:13:32.350Z,31.97
2022-08-19T05:15:35.698Z,34.43
2022-08-19T05:17:59.802Z,29.50
2022-08-19T05:20:20.524Z,34.13
2022-08-19T05:22:36.439Z,32.20
2022-08-19T05:24:56.422Z,30.37
2022-08-19T05:27:03.518Z,28.73
2022-08-19T05:29:08.296Z,36.47
2022-08-19T05:31:13.562Z,30.47
2022-08-19T05:33:17.560Z,29.17
2022-08-19T05:35:20.356Z,32.30
2022-08-19T05:37:23.454Z,28.87
2022-08-19T05:39:29.042Z,30.03
2022-08-19T05:41:32.044Z,31.90
2022-08-19T05:43:34.760Z,29.73
2022-08-19T05:45:40.824Z,30.27
2022-08-19T05:47:43.529Z,31.63
2022-08-19T05:49:47.610Z,31.97
2022-08-19T05:51:51.208Z,30.07
2022-08-19T05:53:53.953Z,32.47
2022-08-19T05:55:56.591Z,30.00
2022-08-19T05:58:02.652Z,30.87
2022-08-19T06:00:10.339Z,30.97
2022-08-19T06:02:14.379Z,32.10
2022-08-19T06:04:17.892Z,29.73
2022-08-19T06:06:22.817Z,30.13
2022-08-19T06:08:33.774Z,28.63
2022-08-19T06:10:37.880Z,28.93
2022-08-19T06:12:40.591Z,29.00
2022-08-19T06:14:43.439Z,32.00
2022-08-19T06:16:47.199Z,31.70
2022-08-19T06:18:52.369Z,29.87
2022-08-19T06:20:56.256Z,30.27
2022-08-19T06:23:00.539Z,29.83
2022-08-19T06:25:04.951Z,29.17
2022-08-19T06:27:07.653Z,31.70
2022-08-19T06:29:12.300Z,37.23
2022-08-19T06:31:29.573Z,32.13
2022-08-19T06:33:32.363Z,36.77
2022-08-19T06:35:40.941Z,33.87
2022-08-19T06:37:43.937Z,33.80
2022-08-19T06:39:48.233Z,33.90
2022-08-19T06:41:55.567Z,33.73
2022-08-19T06:44:01.025Z,35.27
2022-08-19T06:46:04.615Z,33.77
2022-08-19T06:48:09.074Z,35.00
2022-08-19T06:50:15.132Z,34.17
2022-08-19T06:52:19.521Z,36.47
2022-08-19T06:54:22.451Z,36.23
2022-08-19T06:56:35.499Z,33.50
2022-08-19T06:58:39.087Z,34.47
2022-08-19T07:00:42.092Z,34.90
2022-08-19T07:02:49.790Z,32.97
2022-08-19T07:05:02.209Z,31.83
2022-08-19T07:07:19.684Z,33.60
2022-08-19T07:09:23.910Z,32.47
2022-08-19T07:11:28.364Z,32.63
2022-08-19T07:13:37.295Z,34.10
2022-08-19T07:15:40.022Z,31.97
2022-08-19T07:17:44.218Z,30.53
2022-08-19T07:19:47.436Z,30.80
2022-08-19T07:21:53.686Z,32.30
2022-08-19T07:23:57.579Z,30.53
2022-08-19T07:26:00.713Z,31.67
2022-08-19T07:28:05.260Z,34.77
2022-08-19T07:30:11.763Z,31.07
2022-08-19T07:32:15.066Z,32.07
2022-08-19T07:34:18.504Z,30.87
2022-08-19T07:36:24.248Z,31.67
2022-08-19T07:38:28.776Z,32.57
2022-08-19T07:40:32.399Z,30.00
2022-08-19T07:42:35.142Z,33.30
2022-08-19T07:46:47.262Z,31.53
2022-08-19T07:48:53.187Z,33.10
2022-08-19T07:50:57.881Z,35.40
2022-08-19T07:53:00.598Z,31.80
2022-08-19T07:55:04.854Z,32.77
2022-08-19T07:57:07.997Z,33.40
2022-08-19T07:59:10.900Z,39.57
2022-08-19T08:01:17.986Z,35.73
2022-08-19T08:03:44.444Z,36.03
2022-08-19T08:06:05.332Z,32.30
2022-08-19T08:08:37.205Z,34.93
2022-08-19T08:10:48.716Z,35.43
2022-08-19T08:13:09.446Z,34.40
2022-08-19T08:15:19.641Z,32.50
2022-08-19T08:17:31.067Z,37.73
2022-08-19T08:19:51.478Z,37.47
2022-08-19T08:21:55.836Z,35.73
2022-08-19T08:23:57.609Z,41.23
2022-08-19T08:26:01.215Z,39.47
2022-08-19T08:28:05.981Z,35.97
2022-08-19T08:30:10.808Z,36.27
2022-08-19T08:32:14.246Z,31.73
2022-08-19T08:34:19.112Z,34.90
2022-08-19T08:36:21.850Z,36.90
2022-08-19T08:38:24.771Z,32.77
2022-08-19T08:40:35.416Z,36.00
2022-08-19T08:42:48.537Z,34.17
2022-08-19T08:47:13.392Z,36.53
2022-08-19T08:49:28.879Z,33.17
2022-08-19T08:51:35.817Z,34.97
2022-08-19T08:53:41.981Z,35.13
2022-08-19T08:55:46.424Z,36.03
2022-08-19T08:57:57.744Z,35.57
2022-08-19T09:00:06.628Z,35.57
2022-08-19T09:02:18.269Z,35.27
2022-08-19T09:04:23.484Z,34.00
2022-08-19T09:06:34.063Z,33.37
2022-08-19T09:08:46.719Z,33.50
2022-08-19T09:10:55.236Z,34.17
2022-08-19T09:13:12.633Z,35.07
2022-08-19T09:15:18.357Z,31.07
2022-08-19T09:17:29.030Z,32.70
2022-08-19T09:19:33.125Z,34.63
2022-08-19T09:21:36.344Z,32.47
2022-08-19T09:23:41.418Z,33.03
2022-08-19T09:25:44.173Z,34.80
2022-08-19T09:27:47.647Z,31.53
2022-08-19T09:29:50.440Z,32.63
2022-08-19T09:31:53.342Z,33.00
2022-08-19T09:33:58.138Z,32.93
2022-08-19T09:36:08.742Z,35.73
2022-08-19T09:38:11.607Z,34.60
2022-08-19T09:40:15.399Z,31.23
2022-08-19T09:42:29.925Z,33.30
2022-08-19T09:44:34.697Z,31.53
2022-08-19T09:46:37.394Z,32.63
2022-08-19T09:48:40.750Z,33.47
2022-08-19T09:50:51.966Z,31.60
2022-08-19T09:52:57.979Z,35.60
2022-08-19T09:55:01.032Z,32.83
2022-08-19T09:57:10.151Z,34.60
2022-08-19T09:59:13.403Z,32.40
2022-08-19T10:01:21.144Z,32.90
2022-08-19T10:03:25.397Z,36.40
2022-08-19T10:05:48.641Z,33.30
2022-08-19T10:07:52.366Z,34.50
2022-08-19T10:09:56.397Z,36.00
2022-08-19T10:12:02.674Z,32.60
2022-08-19T10:14:07.531Z,31.57
2022-08-19T10:16:13.630Z,36.27
2022-08-19T10:18:18.669Z,35.93
2022-08-19T10:20:22.777Z,31.40
2022-08-19T10:22:26.237Z,31.87
2022-08-19T10:24:29.524Z,32.10
2022-08-19T10:26:37.168Z,33.80
2022-08-19T10:28:40.379Z,30.43
2022-08-19T10:30:45.498Z,31.17
2022-08-19T10:32:48.525Z,31.80
2022-08-19T10:34:52.828Z,31.40
2022-08-19T10:37:02.253Z,31.40
2022-08-19T10:39:08.295Z,31.43
2022-08-19T10:41:14.843Z,31.23
2022-08-19T10:43:18.969Z,30.70
2022-08-19T10:45:23.125Z,30.07
2022-08-19T10:47:31.507Z,27.30
2022-08-19T10:49:54.728Z,28.60
2022-08-19T10:52:18.775Z,28.93
2022-08-19T10:54:31.078Z,28.30
2022-08-19T10:56:53.901Z,27.77
2022-08-19T10:58:58.874Z,31.67
2022-08-19T11:01:01.699Z,28.50
2022-08-19T11:03:04.537Z,28.50
2022-08-19T11:05:13.572Z,26.73
2022-08-19T11:07:16.407Z,29.37
2022-08-19T11:09:21.684Z,25.63
2022-08-19T11:11:24.829Z,25.77
2022-08-19T11:13:27.943Z,25.63
2022-08-19T11:15:34.375Z,25.40
2022-08-19T11:17:41.402Z,25.47
2022-08-19T11:19:44.208Z,25.83
2022-08-19T11:21:49.579Z,25.67
2022-08-19T11:23:58.782Z,23.80
2022-08-19T11:26:03.706Z,23.77
2022-08-19T11:28:07.001Z,24.50
2022-08-19T11:30:13.195Z,22.77
2022-08-19T11:32:17.820Z,23.60
2022-08-19T11:34:24.741Z,23.40
2022-08-19T11:36:29.328Z,21.43
2022-08-19T11:38:32.815Z,20.37
2022-08-19T11:40:35.505Z,23.93
2022-08-19T11:42:55.632Z,25.30
2022-08-19T11:44:58.501Z,26.10
2022-08-19T11:47:09.147Z,27.67
2022-08-19T11:49:14.365Z,26.27
2022-08-19T11:51:22.420Z,28.03
2022-08-19T11:53:25.946Z,29.10
2022-08-19T11:55:28.714Z,28.37
2022-08-19T11:57:31.414Z,30.10
2022-08-19T11:59:34.134Z,26.07
2022-08-19T12:01:36.867Z,27.77
2022-08-19T12:03:40.355Z,26.93
2022-08-19T12:05:44.536Z,28.83
2022-08-19T12:07:47.289Z,27.20
2022-08-19T12:09:50.144Z,29.43
2022-08-19T12:11:53.052Z,28.20
2022-08-19T12:13:55.947Z,31.80
2022-08-19T12:15:59.178Z,32.20
2022-08-19T12:18:01.941Z,34.30
2022-08-19T12:20:07.587Z,36.43
2022-08-19T12:22:11.791Z,35.63
2022-08-19T12:24:14.911Z,34.63
2022-08-19T12:26:19.411Z,42.03
2022-08-19T12:28:23.835Z,41.23
2022-08-19T12:30:27.978Z,37.53
2022-08-19T12:32:30.941Z,37.73
2022-08-19T12:34:34.861Z,37.63
2022-08-19T12:36:37.646Z,40.73
2022-08-19T12:38:42.767Z,37.93
2022-08-19T12:40:48.468Z,37.73
2022-08-19T12:42:52.076Z,37.63
2022-08-19T12:44:56.146Z,42.90
2022-08-19T12:46:59.829Z,41.70
2022-08-19T12:49:06.226Z,40.80
2022-08-19T12:51:28.022Z,43.50
2022-08-19T12:53:31.139Z,39.77
2022-08-19T12:55:35.768Z,41.73
2022-08-19T12:57:41.220Z,40.17
2022-08-19T12:59:44.694Z,38.13
2022-08-19T13:01:48.011Z,37.90
2022-08-19T13:03:51.100Z,38.80
2022-08-19T13:05:54.097Z,39.53
2022-08-19T13:08:01.794Z,41.27
2022-08-19T13:10:08.026Z,40.70
2022-08-19T13:12:14.065Z,42.37
2022-08-19T13:14:16.996Z,40.43
2022-08-19T13:16:23.524Z,42.37
2022-08-19T13:18:27.507Z,43.30
2022-08-19T13:20:31.019Z,42.30
2022-08-19T13:22:34.523Z,42.23
2022-08-19T13:24:42.920Z,41.60
2022-08-19T13:26:52.155Z,49.37
2022-08-19T13:29:15.271Z,43.40
2022-08-19T13:31:37.125Z,45.67
2022-08-19T13:33:40.016Z,43.47
2022-08-19T13:35:44.720Z,44.57
2022-08-19T13:37:47.674Z,46.13
2022-08-19T13:39:50.701Z,48.07
2022-08-19T13:41:53.636Z,48.93
2022-08-19T13:43:57.973Z,45.90
2022-08-19T13:46:01.505Z,48.23
2022-08-19T13:48:08.094Z,47.07
2022-08-19T13:50:12.823Z,45.93
2022-08-19T13:52:15.696Z,46.60
2022-08-19T13:54:19.185Z,46.40
2022-08-19T13:56:26.014Z,45.87
2022-08-19T13:58:32.591Z,47.20
2022-08-19T14:00:39.725Z,49.93
2022-08-19T14:02:44.186Z,53.20
2022-08-19T14:04:48.305Z,49.73
2022-08-19T14:06:54.486Z,51.63
2022-08-19T14:08:57.730Z,52.07
2022-08-19T14:11:06.381Z,51.57
2022-08-19T14:13:10.042Z,48.87
2022-08-19T14:15:14.103Z,49.93
2022-08-19T14:17:19.950Z,49.00
2022-08-19T14:19:24.447Z,50.87
2022-08-19T14:21:37.523Z,49.30
2022-08-19T14:23:43.899Z,50.10
2022-08-19T14:25:47.420Z,51.17
2022-08-19T14:27:51.017Z,53.37
2022-08-19T14:29:56.086Z,48.50
2022-08-19T14:31:59.944Z,47.43
2022-08-19T14:34:04.865Z,49.00
2022-08-19T14:36:16.781Z,50.60
2022-08-19T14:38:28.242Z,47.53
2022-08-19T14:40:35.652Z,46.43
2022-08-19T14:42:39.109Z,43.43
2022-08-19T14:44:42.241Z,50.70
2022-08-19T14:46:50.497Z,43.90
2022-08-19T14:48:55.425Z,46.30
2022-08-19T14:51:00.567Z,47.13
2022-08-19T14:53:08.128Z,43.37
2022-08-19T14:55:19.245Z,44.70
2022-08-19T14:57:24.541Z,45.60
2022-08-19T14:59:27.553Z,41.40
2022-08-19T15:01:30.544Z,44.07
2022-08-19T15:03:34.548Z,41.80
2022-08-19T15:05:37.773Z,40.00
2022-08-19T15:07:42.876Z,41.87
2022-08-19T15:09:46.604Z,40.03
2022-08-19T15:11:52.486Z,38.47
2022-08-19T15:13:57.069Z,42.20
2022-08-19T15:15:59.934Z,38.73
2022-08-19T15:18:03.543Z,39.73
2022-08-19T15:20:07.603Z,38.57
2022-08-19T15:22:10.510Z,37.77
2022-08-19T15:24:14.630Z,36.03
2022-08-19T15:26:18.715Z,38.10
2022-08-19T15:28:21.621Z,38.53
2022-08-19T15:30:28.086Z,35.47
2022-08-19T15:32:32.542Z,36.67
2022-08-19T15:34:35.541Z,35.07
2022-08-19T15:36:42.061Z,34.30
2022-08-19T15:38:47.231Z,33.30
2022-08-19T15:40:52.874Z,30.97
2022-08-19T15:42:55.715Z,30.60
2022-08-19T15:45:00.787Z,28.67
2022-08-19T15:47:04.773Z,30.33
2022-08-19T15:49:08.172Z,30.40
2022-08-19T15:51:10.855Z,30.00
2022-08-19T15:53:13.889Z,30.77
2022-08-19T15:55:33.820Z,29.67
2022-08-19T15:57:56.168Z,29.83
2022-08-19T16:00:16.415Z,29.00
2022-08-19T16:02:39.190Z,29.23
2022-08-19T16:04:59.599Z,28.93
2022-08-19T16:07:03.678Z,29.37
2022-08-19T16:09:06.452Z,30.70
2022-08-19T16:11:09.147Z,29.80
2022-08-19T16:13:13.194Z,31.87
2022-08-19T16:15:15.935Z,30.00
2022-08-19T16:17:18.600Z,30.23
2022-08-19T16:19:21.311Z,31.23
2022-08-19T16:21:26.105Z,31.80
2022-08-19T16:23:29.199Z,30.03
2022-08-19T16:25:32.047Z,31.23
2022-08-19T16:27:35.164Z,31.70
2022-08-19T16:29:39.685Z,30.33
2022-08-19T16:31:44.394Z,31.43
2022-08-19T16:33:47.058Z,32.50
2022-08-19T16:35:56.093Z,31.97
2022-08-19T16:38:03.659Z,30.70
2022-08-19T16:40:09.390Z,31.53
2022-08-19T16:42:13.929Z,32.40
2022-08-19T16:44:17.733Z,33.90
2022-08-19T16:46:22.783Z,32.60
2022-08-19T16:48:29.754Z,33.33
2022-08-19T16:50:48.703Z,32.87
2022-08-19T16:52:51.723Z,33.27
2022-08-19T16:54:54.928Z,32.70
2022-08-19T16:56:57.573Z,32.70
2022-08-19T16:59:00.593Z,33.80
2022-08-19T17:01:07.897Z,32.10
2022-08-19T17:03:15.073Z,35.07
2022-08-19T17:05:18.826Z,36.63
2022-08-19T17:07:21.532Z,36.50
2022-08-19T17:09:25.828Z,37.73
2022-08-19T17:11:31.590Z,35.97
2022-08-19T17:13:34.720Z,35.70
2022-08-19T17:15:37.377Z,34.20
2022-08-19T17:17:40.030Z,34.80
2022-08-19T17:19:44.553Z,35.70
2022-08-19T17:21:47.212Z,33.07
2022-08-19T17:23:50.441Z,35.00
2022-08-19T17:25:53.384Z,32.97
2022-08-19T17:27:56.485Z,32.20
2022-08-19T17:30:00.181Z,34.07
2022-08-19T17:32:03.305Z,34.13
2022-08-19T17:34:06.953Z,33.30
2022-08-19T17:36:13.646Z,32.37
2022-08-19T17:38:19.042Z,37.00
2022-08-19T17:40:23.888Z,32.13
2022-08-19T17:42:26.889Z,33.20
2022-08-19T17:44:29.510Z,32.13
2022-08-19T17:46:32.317Z,34.00
2022-08-19T17:48:38.741Z,33.57
2022-08-19T17:50:41.645Z,33.37
2022-08-19T17:52:45.809Z,36.77
2022-08-19T17:54:48.540Z,34.37
2022-08-19T17:56:51.448Z,33.43
2022-08-19T17:59:00.397Z,34.33
2022-08-19T18:01:05.131Z,35.27
2022-08-19T18:03:08.495Z,32.77
2022-08-19T18:05:15.460Z,33.90
2022-08-19T18:07:21.514Z,33.20
2022-08-19T18:09:27.856Z,33.97
2022-08-19T18:11:30.636Z,31.87
2022-08-19T18:13:33.398Z,34.33
2022-08-19T18:15:36.156Z,32.10
2022-08-19T18:17:42.016Z,33.77
2022-08-19T18:19:46.052Z,35.10
2022-08-19T18:21:48.867Z,39.77
2022-08-19T18:23:51.544Z,34.87
2022-08-19T18:26:06.260Z,36.07
2022-08-19T18:28:08.930Z,37.83
2022-08-19T18:30:13.428Z,41.03
2022-08-19T18:32:18.150Z,37.13
2022-08-19T18:34:26.988Z,36.07
2022-08-19T18:36:52.483Z,36.20
2022-08-19T18:39:09.913Z,36.20
2022-08-19T18:41:33.919Z,37.23
2022-08-19T18:43:54.372Z,38.30
2022-08-19T18:46:14.776Z,36.90
2022-08-19T18:48:35.071Z,37.70
2022-08-19T18:50:40.405Z,39.13
2022-08-19T18:52:43.115Z,41.10
2022-08-19T18:54:47.135Z,40.60
2022-08-19T18:56:55.555Z,39.73
2022-08-19T18:58:58.741Z,40.40
2022-08-19T19:01:10.520Z,42.20
2022-08-19T19:03:13.242Z,44.40
2022-08-19T19:05:16.254Z,41.50
2022-08-19T19:07:19.972Z,42.13
2022-08-19T19:09:25.041Z,48.27
2022-08-19T19:11:29.959Z,43.13
2022-08-19T19:13:35.662Z,41.53
2022-08-19T19:15:39.511Z,45.70
2022-08-19T19:17:42.144Z,46.50
2022-08-19T19:19:45.624Z,47.83
2022-08-19T19:21:49.924Z,47.60
2022-08-19T19:23:53.942Z,45.00
2022-08-19T19:25:56.632Z,47.77
2022-08-19T19:27:59.421Z,47.33
2022-08-19T19:30:03.613Z,43.73
2022-08-19T19:32:08.244Z,44.70
2022-08-19T19:34:28.843Z,41.93
2022-08-19T19:36:32.683Z,43.13
2022-08-19T19:38:35.414Z,46.13
2022-08-19T19:40:38.112Z,46.53
2022-08-19T19:42:40.772Z,44.13
2022-08-19T19:44:48.037Z,43.17
2022-08-19T19:46:55.699Z,44.37
2022-08-19T19:49:00.327Z,43.40
2022-08-19T19:51:04.910Z,41.00
2022-08-19T19:53:07.650Z,44.87
2022-08-19T19:55:11.720Z,40.50
2022-08-19T19:57:15.455Z,42.43
2022-08-19T19:59:18.725Z,42.70
2022-08-19T20:01:24.698Z,44.80
2022-08-19T20:03:30.839Z,43.07
2022-08-19T20:05:33.555Z,40.60
2022-08-19T20:07:54.173Z,43.20
2022-08-19T20:10:00.195Z,42.20
2022-08-19T20:12:03.124Z,41.20
2022-08-19T20:14:11.637Z,43.43
2022-08-19T20:16:15.215Z,43.50
2022-08-19T20:18:18.968Z,42.60
2022-08-19T20:20:23.659Z,39.97
2022-08-19T20:22:26.571Z,38.63
2022-08-19T20:24:32.360Z,39.43
2022-08-19T20:26:35.207Z,38.97
2022-08-19T20:28:38.067Z,40.07
2022-08-19T20:30:48.104Z,37.87
2022-08-19T20:32:51.588Z,38.40
2022-08-19T20:34:54.357Z,35.90
2022-08-19T20:36:58.455Z,37.57
2022-08-19T20:39:01.899Z,39.37
2022-08-19T20:41:04.942Z,37.30
2022-08-19T20:43:09.868Z,37.60
2022-08-19T20:45:29.411Z,34.07
2022-08-19T20:47:36.026Z,30.67
2022-08-19T20:49:39.125Z,34.17
2022-08-19T20:51:41.922Z,30.70
2022-08-19T20:53:46.037Z,28.87
2022-08-19T20:55:50.067Z,25.87
2022-08-19T20:57:52.761Z,26.93
2022-08-19T20:59:55.451Z,23.93
2022-08-19T21:01:58.209Z,24.03
2022-08-19T21:04:00.846Z,23.13
2022-08-19T21:06:04.681Z,18.07
2022-08-19T21:08:09.068Z,15.30
2022-08-19T21:10:13.150Z,16.90
2022-08-19T21:12:15.879Z,14.40
2022-08-19T21:14:19.072Z,14.67
2022-08-19T21:16:22.005Z,13.30
2022-08-19T21:18:26.880Z,13.00
2022-08-19T21:20:29.835Z,12.80
2022-08-19T21:22:32.544Z,10.70
2022-08-19T21:24:35.242Z,9.87
2022-08-19T21:26:39.397Z,10.43
2022-08-19T21:28:42.098Z,8.80
2022-08-19T21:30:44.827Z,7.73
2022-08-19T21:32:52.279Z,8.53
2022-08-19T21:34:55.408Z,9.00
2022-08-19T21:36:58.056Z,8.37
2022-08-19T21:39:00.683Z,8.20
2022-08-19T21:41:06.083Z,7.60
2022-08-19T21:43:10.545Z,7.20
2022-08-19T21:45:17.314Z,6.73
2022-08-19T21:47:21.269Z,6.67
2022-08-19T21:49:24.230Z,8.60
2022-08-19T21:51:27.189Z,5.40
2022-08-19T21:53:31.417Z,5.73
2022-08-19T21:55:37.352Z,5.17
2022-08-19T21:57:41.413Z,4.93
2022-08-19T21:59:45.592Z,4.57
2022-08-19T22:01:54.058Z,4.57
2022-08-19T22:04:01.632Z,4.10
2022-08-19T22:06:04.618Z,3.83
2022-08-19T22:08:07.287Z,4.60
2022-08-19T22:10:11.946Z,4.00
2022-08-19T22:12:23.411Z,4.27
2022-08-19T22:14:26.425Z,3.73
2022-08-19T22:16:30.449Z,3.90
2022-08-19T22:18:34.636Z,4.00
2022-08-19T22:20:37.943Z,3.60
2022-08-19T22:22:47.196Z,3.40
2022-08-19T22:24:49.901Z,3.30
2022-08-19T22:26:52.589Z,3.50
2022-08-19T22:28:55.390Z,3.50
2022-08-19T22:30:59.402Z,3.67
2022-08-19T22:33:07.223Z,3.70
2022-08-19T22:35:10.212Z,4.03
2022-08-19T22:37:13.957Z,3.57
2022-08-19T22:39:16.660Z,3.40
2022-08-19T22:41:19.363Z,3.67
2022-08-19T22:43:25.036Z,3.60
2022-08-19T22:45:29.097Z,3.60
2022-08-19T22:47:32.262Z,5.57
2022-08-19T22:49:38.304Z,3.57
2022-08-19T22:51:59.484Z,3.33
2022-08-19T22:54:02.952Z,4.60
2022-08-19T22:56:09.881Z,3.00
2022-08-19T22:58:15.857Z,4.33
2022-08-19T23:00:30.794Z,5.03
2022-08-19T23:02:38.190Z,3.70
2022-08-19T23:04:42.198Z,3.37
2022-08-19T23:06:44.902Z,4.03
2022-08-19T23:08:47.608Z,5.17
2022-08-19T23:10:50.375Z,4.53
2022-08-19T23:12:54.045Z,4.33
2022-08-19T23:14:58.492Z,5.90
2022-08-19T23:17:01.370Z,4.23
2022-08-19T23:19:04.411Z,4.50
2022-08-19T23:21:09.570Z,5.00
2022-08-19T23:23:14.405Z,4.47
2022-08-19T23:25:21.371Z,4.20
2022-08-19T23:27:41.446Z,4.27
2022-08-19T23:30:01.787Z,4.30
2022-08-19T23:32:07.035Z,4.47
2022-08-19T23:34:10.017Z,4.33
2022-08-19T23:36:16.779Z,4.30
2022-08-19T23:38:22.636Z,4.03
2022-08-19T23:40:25.424Z,4.10
2022-08-19T23:42:28.830Z,4.17
2022-08-19T23:44:31.604Z,3.87
2022-08-19T23:46:50.531Z,4.10
2022-08-19T23:48:59.680Z,3.93
2022-08-19T23:51:04.151Z,4.40
2022-08-19T23:53:09.209Z,3.43
2022-08-19T23:55:16.614Z,3.77
2022-08-19T23:57:19.285Z,3.83
2022-08-19T23:59:22.526Z,4.77
